KCKC

Grand Marais/Cook County Airport

Grand Marais, Minnesota, USA
METAR KCKC 172055Z AUTO 20006KT 4SM BR OVC002 M05/M07 A2990 RMK AO2
Observed Flight Rules
Dec-17 @ 20:55 UTC (28 minutes ago) Instrument Flight Rules
Wind Visibility Clouds Conditions
200° at 6 knots 4 miles
  • Overcast at 200' AGL
  • Mist
Temperatures Readings
Current -5°C / 23°F
Dewpoint -7°C / 19°F
Humidity 86%
Altimeter 29.9" Hg
Pressure 1013 hPa
Elevation 548
METAR KCKC 172055Z AUTO 20006KT 4SM BR OVC002 M05/M07 A2990 RMK AO2
Observed Flight Rules
Dec-17 @ 20:55 UTC
(28 minutes ago)
LIFR
Wind Visibility
200° at 6 knots 4 miles
Clouds
  • Overcast at 200' AGL
Conditions
  • Mist
Temperature Dewpoint
-5°C / 23°F -7°C / 19°F
Humidity Altimeter Pressure
86% 29.9" Hg 1013 hPa